Time;durP1;ratioP1;P1;durP2;ratioP2;P2;SDS_P1;SDS_P2;PMS_P1;PMS_P2;Temp;Humidity;BMP_temperature;BMP_pressure;BME280_temperature;BME280_humidity;BME280_pressure;Samples;Min_cycle;Max_cycle;Signal;HPM_P1;HPM_P2
2022/05/09 00:01:57;;;;;;;;;;;;;;;;;;5054219;28;20255;-59
2022/05/09 00:04:23;;;;;;;;;;;;;;;;;;5054475;28;19909;-54
2022/05/09 00:06:50;;;;;;;;;;;;;;;;;;5054336;28;19928;-50
2022/05/09 00:09:16;;;;;;;;;;;;;;;;;;5054611;28;20308;-57
2022/05/09 00:11:43;;;;;;;;;;;;;;;;;;5053528;28;19919;-53
2022/05/09 00:14:09;;;;;;;;;;;;;;;;;;5054253;28;19954;-53
2022/05/09 00:16:36;;;;;;;;;;;;;;;;;;5053650;28;19920;-48
2022/05/09 00:19:05;;;;;;;;;;;;;;;;;;5054162;28;20348;-51
2022/05/09 00:21:32;;;;;;;;;;;;;;;;;;5054097;28;20415;-55
2022/05/09 00:23:58;;;;;;;;;;;;;;;;;;5053799;28;20268;-48
2022/05/09 00:26:30;;;;;;;;;;;;;;;;;;5054029;28;20267;-57
2022/05/09 00:28:57;;;;;;;;;;;;;;;;;;5053748;28;19909;-51
2022/05/09 00:31:23;;;;;;;;;;;;;;;;;;5053799;28;19916;-52
2022/05/09 00:33:50;;;;;;;;;;;;;;;;;;5054006;28;19909;-46
2022/05/09 00:36:17;;;;;;;;;;;;;;;;;;5053830;28;20015;-55
2022/05/09 00:38:44;;;;;;;;;;;;;;;;;;5053761;28;20375;-48
2022/05/09 00:41:29;;;;;;;;;;;;;;;;;;5054051;28;19915;-48
2022/05/09 00:43:55;;;;;;;;;;;;;;;;;;5053027;28;19909;-54
2022/05/09 00:46:22;;;;;;;;;;;;;;;;;;5053414;28;20348;-51
2022/05/09 00:48:48;;;;;;;;;;;;;;;;;;5053756;28;20366;-55
2022/05/09 00:51:15;;;;;;;;;;;;;;;;;;5053881;28;19913;-56
2022/05/09 00:53:41;;;;;;;;;;;;;;;;;;5053666;28;20227;-56
2022/05/09 00:56:08;;;;;;;;;;;;;;;;;;5053707;28;19971;-50
2022/05/09 00:58:34;;;;;;;;;;;;;;;;;;5052172;28;20410;-50
2022/05/09 01:01:01;;;;;;;;;;;;;;;;;;5053375;28;19912;-50
2022/05/09 01:03:27;;;;;;;;;;;;;;;;;;5053167;28;20371;-57
2022/05/09 01:05:53;;;;;;;;;;;;;;;;;;5052826;28;19917;-52
2022/05/09 01:08:20;;;;;;;;;;;;;;;;;;5053704;28;19909;-56
2022/05/09 01:10:47;;;;;;;;;;;;;;;;;;5053508;28;19913;-53
2022/05/09 01:13:14;;;;;;;;;;;;;;;;;;5052837;28;19963;-49
2022/05/09 01:15:40;;;;;;;;;;;;;;;;;;5053026;28;20000;-47
2022/05/09 01:18:07;;;;;;;;;;;;;;;;;;5052850;28;19952;-54
2022/05/09 01:20:33;;;;;;;;;;;;;;;;;;5052919;28;20360;-48
2022/05/09 01:23:00;;;;;;;;;;;;;;;;;;5053120;28;20356;-55
2022/05/09 01:25:30;;;;;;;;;;;;;;;;;;5052651;28;19909;-47
2022/05/09 01:27:56;;;;;;;;;;;;;;;;;;5052724;28;20060;-55
2022/05/09 01:30:23;;;;;;;;;;;;;;;;;;5052593;28;19917;-58
2022/05/09 01:32:49;;;;;;;;;;;;;;;;;;5052927;28;19909;-53
2022/05/09 01:35:16;;;;;;;;;;;;;;;;;;5052721;28;19908;-53
2022/05/09 01:37:42;;;;;;;;;;;;;;;;;;5052294;28;19967;-48
2022/05/09 01:40:09;;;;;;;;;;;;;;;;;;5052610;28;19940;-50
2022/05/09 01:42:35;;;;;;;;;;;;;;;;;;5052215;28;19909;-52
2022/05/09 01:45:02;;;;;;;;;;;;;;;;;;5052531;28;19920;-57
2022/05/09 01:50:13;;;;;;;;;;;;;;;;;;5052352;28;19919;-52
2022/05/09 01:52:39;;;;;;;;;;;;;;;;;;5052244;28;20322;-51
2022/05/09 01:55:06;;;;;;;;;;;;;;;;;;5051746;28;20049;-52
2022/05/09 01:57:32;;;;;;;;;;;;;;;;;;5050887;28;19927;-46
2022/05/09 01:59:59;;;;;;;;;;;;;;;;;;5051176;28;19908;-43
2022/05/09 02:02:25;;;;;;;;;;;;;;;;;;5048973;28;19966;-54
2022/05/09 02:04:52;;;;;;;;;;;;;;;;;;5049293;28;19912;-44
2022/05/09 02:07:19;;;;;;;;;;;;;;;;;;5049325;28;19967;-49
2022/05/09 02:09:45;;;;;;;;;;;;;;;;;;5050692;28;19909;-56
2022/05/09 02:12:12;;;;;;;;;;;;;;;;;;5050281;28;19936;-51
2022/05/09 02:14:39;;;;;;;;;;;;;;;;;;5049814;28;19909;-53
2022/05/09 02:17:05;;;;;;;;;;;;;;;;;;5050431;28;19932;-57
2022/05/09 02:19:32;;;;;;;;;;;;;;;;;;5050811;28;19973;-56
2022/05/09 02:22:00;;;;;;;;;;;;;;;;;;5050294;28;19916;-59
2022/05/09 02:24:27;;;;;;;;;;;;;;;;;;5050977;28;19909;-58
2022/05/09 02:26:54;;;;;;;;;;;;;;;;;;5051939;28;20001;-50
2022/05/09 02:29:20;;;;;;;;;;;;;;;;;;5052167;28;19908;-54
2022/05/09 02:31:46;;;;;;;;;;;;;;;;;;5051797;28;19909;-47
2022/05/09 02:34:13;;;;;;;;;;;;;;;;;;5051090;28;19909;-47
2022/05/09 02:36:39;;;;;;;;;;;;;;;;;;5050146;28;20386;-48
2022/05/09 02:39:06;;;;;;;;;;;;;;;;;;5051618;28;19916;-46
2022/05/09 02:41:32;;;;;;;;;;;;;;;;;;5051796;28;19913;-44
2022/05/09 02:43:59;;;;;;;;;;;;;;;;;;5051858;28;19920;-46
2022/05/09 02:46:25;;;;;;;;;;;;;;;;;;5051683;28;19905;-47
2022/05/09 02:48:52;;;;;;;;;;;;;;;;;;5052021;28;19916;-50
2022/05/09 02:51:18;;;;;;;;;;;;;;;;;;5052059;28;19905;-55
2022/05/09 02:53:45;;;;;;;;;;;;;;;;;;5051761;28;20000;-55
2022/05/09 02:56:11;;;;;;;;;;;;;;;;;;5051856;28;19913;-42
2022/05/09 02:58:38;;;;;;;;;;;;;;;;;;5051758;28;19925;-43
2022/05/09 03:01:04;;;;;;;;;;;;;;;;;;5051795;28;19966;-42
2022/05/09 03:06:15;;;;;;;;;;;;;;;;;;5049202;28;19990;-51
2022/05/09 03:08:41;;;;;;;;;;;;;;;;;;5052108;28;20050;-52
2022/05/09 03:11:08;;;;;;;;;;;;;;;;;;5053554;28;19993;-50
2022/05/09 03:13:36;;;;;;;;;;;;;;;;;;5053549;28;19908;-45
2022/05/09 03:16:02;;;;;;;;;;;;;;;;;;5048739;28;20224;-43
2022/05/09 03:18:29;;;;;;;;;;;;;;;;;;5050453;28;20451;-42
2022/05/09 03:20:55;;;;;;;;;;;;;;;;;;5054643;28;19913;-51
2022/05/09 03:23:22;;;;;;;;;;;;;;;;;;5051840;28;20339;-50
2022/05/09 03:25:48;;;;;;;;;;;;;;;;;;5052553;28;19916;-47
2022/05/09 03:28:15;;;;;;;;;;;;;;;;;;5049232;28;19944;-57
2022/05/09 03:30:41;;;;;;;;;;;;;;;;;;5052243;28;20323;-46
2022/05/09 03:33:08;;;;;;;;;;;;;;;;;;5053865;28;19909;-54
2022/05/09 03:35:35;;;;;;;;;;;;;;;;;;5053556;28;19972;-54
2022/05/09 03:38:01;;;;;;;;;;;;;;;;;;5054594;28;19960;-51
2022/05/09 03:40:28;;;;;;;;;;;;;;;;;;5055068;28;20295;-55
2022/05/09 03:42:55;;;;;;;;;;;;;;;;;;5054366;28;19909;-54
2022/05/09 03:45:21;;;;;;;;;;;;;;;;;;5053895;28;19909;-51
2022/05/09 03:47:48;;;;;;;;;;;;;;;;;;5054549;28;19908;-54
2022/05/09 03:50:14;;;;;;;;;;;;;;;;;;5054680;28;20385;-48
2022/05/09 03:52:41;;;;;;;;;;;;;;;;;;5054869;28;19917;-51
2022/05/09 03:55:07;;;;;;;;;;;;;;;;;;5054752;28;19916;-54
2022/05/09 03:57:34;;;;;;;;;;;;;;;;;;5054098;28;19917;-59
2022/05/09 04:00:00;;;;;;;;;;;;;;;;;;5051691;28;20383;-49
2022/05/09 04:02:27;;;;;;;;;;;;;;;;;;5054687;28;19908;-54
2022/05/09 04:04:53;;;;;;;;;;;;;;;;;;5054116;28;19905;-50
2022/05/09 04:07:20;;;;;;;;;;;;;;;;;;5053822;28;20149;-50
2022/05/09 04:09:50;;;;;;;;;;;;;;;;;;5052384;28;21378;-54
2022/05/09 04:12:17;;;;;;;;;;;;;;;;;;5053605;28;20000;-42
2022/05/09 04:17:28;;;;;;;;;;;;;;;;;;5054395;28;19963;-47
2022/05/09 04:19:55;;;;;;;;;;;;;;;;;;5052954;28;20764;-53
2022/05/09 04:22:21;;;;;;;;;;;;;;;;;;5054059;28;19932;-57
2022/05/09 04:24:48;;;;;;;;;;;;;;;;;;5054373;28;19995;-45
2022/05/09 04:27:14;;;;;;;;;;;;;;;;;;5054115;28;19912;-50
2022/05/09 04:29:41;;;;;;;;;;;;;;;;;;5053806;28;19992;-54
2022/05/09 04:32:07;;;;;;;;;;;;;;;;;;5054403;28;19954;-56
2022/05/09 04:34:34;;;;;;;;;;;;;;;;;;5053956;28;19997;-55
2022/05/09 04:37:00;;;;;;;;;;;;;;;;;;5054163;28;19917;-53
2022/05/09 04:39:27;;;;;;;;;;;;;;;;;;5053615;28;19920;-55
2022/05/09 04:41:53;;;;;;;;;;;;;;;;;;5053639;28;20363;-52
2022/05/09 04:44:21;;;;;;;;;;;;;;;;;;5053540;28;20436;-54
2022/05/09 04:46:47;;;;;;;;;;;;;;;;;;5053904;28;19917;-47
2022/05/09 04:49:14;;;;;;;;;;;;;;;;;;5053770;28;20003;-57
2022/05/09 04:51:40;;;;;;;;;;;;;;;;;;5053516;28;19909;-52
2022/05/09 04:54:06;;;;;;;;;;;;;;;;;;5053603;28;20344;-58
2022/05/09 04:56:33;;;;;;;;;;;;;;;;;;5053096;28;19917;-52
2022/05/09 04:58:59;;;;;;;;;;;;;;;;;;5053380;28;19909;-54
2022/05/09 05:01:26;;;;;;;;;;;;;;;;;;5053471;28;19962;-52
2022/05/09 05:03:52;;;;;;;;;;;;;;;;;;5052909;28;19919;-51
2022/05/09 05:06:19;;;;;;;;;;;;;;;;;;5051479;28;19966;-51
2022/05/09 05:08:45;;;;;;;;;;;;;;;;;;5052933;28;19987;-51
2022/05/09 05:11:12;;;;;;;;;;;;;;;;;;5053547;28;19915;-52
2022/05/09 05:13:38;;;;;;;;;;;;;;;;;;5053203;28;19916;-54
2022/05/09 05:16:04;;;;;;;;;;;;;;;;;;5053327;28;19954;-53
2022/05/09 05:18:32;;;;;;;;;;;;;;;;;;5053377;28;19917;-54
2022/05/09 05:20:59;;;;;;;;;;;;;;;;;;5052720;28;19909;-57
2022/05/09 05:23:25;;;;;;;;;;;;;;;;;;5053219;28;19909;-51
2022/05/09 05:25:52;;;;;;;;;;;;;;;;;;5052755;28;19942;-48
2022/05/09 05:28:18;;;;;;;;;;;;;;;;;;5053936;28;20351;-50
2022/05/09 05:30:45;;;;;;;;;;;;;;;;;;5053232;28;19915;-57
2022/05/09 05:33:11;;;;;;;;;;;;;;;;;;5053714;28;19955;-53
2022/05/09 05:35:38;;;;;;;;;;;;;;;;;;5053058;28;19915;-50
2022/05/09 05:38:04;;;;;;;;;;;;;;;;;;5053175;28;19917;-50
2022/05/09 05:40:31;;;;;;;;;;;;;;;;;;5053628;28;20383;-53
2022/05/09 05:42:57;;;;;;;;;;;;;;;;;;5053051;28;19963;-52
2022/05/09 05:45:24;;;;;;;;;;;;;;;;;;5053363;28;19909;-51
2022/05/09 05:47:50;;;;;;;;;;;;;;;;;;5053086;28;20248;-51
2022/05/09 05:50:17;;;;;;;;;;;;;;;;;;5053106;28;19909;-49
2022/05/09 05:52:44;;;;;;;;;;;;;;;;;;5053335;28;19909;-56
2022/05/09 05:55:10;;;;;;;;;;;;;;;;;;5053059;28;20065;-54
2022/05/09 05:57:38;;;;;;;;;;;;;;;;;;5051801;28;19927;-55
2022/05/09 06:00:05;;;;;;;;;;;;;;;;;;5052956;28;20003;-59
2022/05/09 06:02:31;;;;;;;;;;;;;;;;;;5051717;28;19909;-51
2022/05/09 06:04:58;;;;;;;;;;;;;;;;;;5053124;28;19970;-56
2022/05/09 06:07:24;;;;;;;;;;;;;;;;;;5052884;28;19932;-53
2022/05/09 06:09:50;;;;;;;;;;;;;;;;;;5052366;28;20344;-53
2022/05/09 06:12:17;;;;;;;;;;;;;;;;;;5053339;28;19936;-54
2022/05/09 06:14:43;;;;;;;;;;;;;;;;;;5052441;28;19923;-49
2022/05/09 06:17:10;;;;;;;;;;;;;;;;;;5052179;28;19919;-51
2022/05/09 06:19:37;;;;;;;;;;;;;;;;;;5051756;28;20232;-44
2022/05/09 06:22:03;;;;;;;;;;;;;;;;;;5053479;28;19909;-54
2022/05/09 06:24:30;;;;;;;;;;;;;;;;;;5052017;28;20260;-58
2022/05/09 06:26:57;;;;;;;;;;;;;;;;;;5047557;28;19995;-45
2022/05/09 06:29:23;;;;;;;;;;;;;;;;;;5050143;28;19912;-50
2022/05/09 06:31:50;;;;;;;;;;;;;;;;;;5046944;28;20374;-56
2022/05/09 06:34:16;;;;;;;;;;;;;;;;;;5050845;28;20314;-54
2022/05/09 06:36:45;;;;;;;;;;;;;;;;;;5049282;28;19924;-46
2022/05/09 06:39:12;;;;;;;;;;;;;;;;;;5048835;28;20018;-53
2022/05/09 06:41:39;;;;;;;;;;;;;;;;;;5047986;28;19946;-51
2022/05/09 06:44:05;;;;;;;;;;;;;;;;;;5053065;28;19912;-58
2022/05/09 06:46:33;;;;;;;;;;;;;;;;;;5053412;28;19916;-47
2022/05/09 06:49:00;;;;;;;;;;;;;;;;;;5053286;28;20539;-47
2022/05/09 06:51:27;;;;;;;;;;;;;;;;;;5051308;28;20359;-54
2022/05/09 06:53:53;;;;;;;;;;;;;;;;;;5054277;28;19909;-50
2022/05/09 06:56:20;;;;;;;;;;;;;;;;;;5052623;28;19909;-52
2022/05/09 06:58:47;;;;;;;;;;;;;;;;;;5053321;28;19927;-48
2022/05/09 07:01:13;;;;;;;;;;;;;;;;;;5051119;28;20314;-50
2022/05/09 07:03:40;;;;;;;;;;;;;;;;;;5053553;28;19994;-44
2022/05/09 07:06:06;;;;;;;;;;;;;;;;;;5053216;28;19924;-54
2022/05/09 07:08:33;;;;;;;;;;;;;;;;;;5052435;28;19912;-59
2022/05/09 07:10:59;;;;;;;;;;;;;;;;;;5050552;28;19916;-54
2022/05/09 07:13:26;;;;;;;;;;;;;;;;;;5052390;28;19909;-51
2022/05/09 07:15:57;;;;;;;;;;;;;;;;;;5053761;28;19923;-52
2022/05/09 07:18:25;;;;;;;;;;;;;;;;;;5053470;28;19916;-56
2022/05/09 07:20:52;;;;;;;;;;;;;;;;;;5050557;28;19986;-47
2022/05/09 07:23:18;;;;;;;;;;;;;;;;;;5051275;28;19970;-50
2022/05/09 07:25:48;;;;;;;;;;;;;;;;;;5054549;28;20386;-51
2022/05/09 07:28:18;;;;;;;;;;;;;;;;;;5051969;28;19968;-48
2022/05/09 07:30:45;;;;;;;;;;;;;;;;;;5049645;28;20364;-52
2022/05/09 07:33:12;;;;;;;;;;;;;;;;;;5054084;28;20355;-48
2022/05/09 07:35:38;;;;;;;;;;;;;;;;;;5053542;28;19927;-50
2022/05/09 07:38:05;;;;;;;;;;;;;;;;;;5053865;28;20013;-49
2022/05/09 07:40:32;;;;;;;;;;;;;;;;;;5053561;28;20375;-48
2022/05/09 07:42:59;;;;;;;;;;;;;;;;;;5054717;28;19963;-55
2022/05/09 07:45:25;;;;;;;;;;;;;;;;;;5055300;28;19905;-45
2022/05/09 07:47:52;;;;;;;;;;;;;;;;;;5053923;28;20307;-54
2022/05/09 07:50:18;;;;;;;;;;;;;;;;;;5053723;28;19905;-49
2022/05/09 07:52:45;;;;;;;;;;;;;;;;;;5055229;28;19951;-52
2022/05/09 07:55:11;;;;;;;;;;;;;;;;;;5054690;28;20275;-47
2022/05/09 07:57:38;;;;;;;;;;;;;;;;;;5055386;28;20006;-52
2022/05/09 08:00:05;;;;;;;;;;;;;;;;;;5051565;28;20253;-54
2022/05/09 08:02:32;;;;;;;;;;;;;;;;;;5055017;28;20398;-45
2022/05/09 08:04:59;;;;;;;;;;;;;;;;;;5055298;28;19908;-49
2022/05/09 08:07:26;;;;;;;;;;;;;;;;;;5054860;28;19929;-55
2022/05/09 08:09:52;;;;;;;;;;;;;;;;;;5054489;28;19916;-59
2022/05/09 08:12:19;;;;;;;;;;;;;;;;;;5055562;28;19908;-51
2022/05/09 08:14:45;;;;;;;;;;;;;;;;;;5055067;28;19908;-49
2022/05/09 08:17:12;;;;;;;;;;;;;;;;;;5055464;28;20354;-56
2022/05/09 08:19:39;;;;;;;;;;;;;;;;;;5054374;28;19967;-53
2022/05/09 08:22:07;;;;;;;;;;;;;;;;;;5053335;28;19912;-54
2022/05/09 08:24:34;;;;;;;;;;;;;;;;;;5055097;28;19940;-52
2022/05/09 08:27:00;;;;;;;;;;;;;;;;;;5055123;28;19988;-58
2022/05/09 08:29:27;;;;;;;;;;;;;;;;;;5054524;28;19909;-52
2022/05/09 08:31:53;;;;;;;;;;;;;;;;;;5054335;28;19909;-57
2022/05/09 08:34:20;;;;;;;;;;;;;;;;;;5055005;28;20291;-59
2022/05/09 08:36:48;;;;;;;;;;;;;;;;;;5055148;28;19935;-55
2022/05/09 08:39:14;;;;;;;;;;;;;;;;;;5054972;28;19928;-47
2022/05/09 08:41:41;;;;;;;;;;;;;;;;;;5054137;28;19909;-41
2022/05/09 08:44:07;;;;;;;;;;;;;;;;;;5053384;28;19913;-49
2022/05/09 08:46:36;;;;;;;;;;;;;;;;;;5054202;28;19947;-55
2022/05/09 08:49:02;;;;;;;;;;;;;;;;;;5054649;28;20303;-56
2022/05/09 08:51:29;;;;;;;;;;;;;;;;;;5054556;28;19916;-59
2022/05/09 08:53:55;;;;;;;;;;;;;;;;;;5054342;28;20267;-51
2022/05/09 08:56:22;;;;;;;;;;;;;;;;;;5052493;28;20011;-54
2022/05/09 08:58:51;;;;;;;;;;;;;;;;;;5052044;28;20005;-41
2022/05/09 09:01:18;;;;;;;;;;;;;;;;;;5054007;28;20000;-60
2022/05/09 09:03:44;;;;;;;;;;;;;;;;;;5053251;28;19913;-45
2022/05/09 09:06:11;;;;;;;;;;;;;;;;;;5053422;28;19916;-45
2022/05/09 09:08:38;;;;;;;;;;;;;;;;;;5053803;28;19912;-49
2022/05/09 09:11:05;;;;;;;;;;;;;;;;;;5053904;28;19970;-50
2022/05/09 09:13:31;;;;;;;;;;;;;;;;;;5052708;28;19909;-48
2022/05/09 09:15:58;;;;;;;;;;;;;;;;;;5053536;28;20372;-49
2022/05/09 09:18:28;;;;;;;;;;;;;;;;;;5053661;28;20019;-45
2022/05/09 09:20:54;;;;;;;;;;;;;;;;;;5054074;28;19931;-50
2022/05/09 09:23:21;;;;;;;;;;;;;;;;;;5054025;28;19909;-46
2022/05/09 09:25:48;;;;;;;;;;;;;;;;;;5052471;28;19909;-49
2022/05/09 09:28:15;;;;;;;;;;;;;;;;;;5053853;28;19909;-48
2022/05/09 09:30:42;;;;;;;;;;;;;;;;;;5053841;28;19916;-48
2022/05/09 09:33:09;;;;;;;;;;;;;;;;;;5053276;28;19909;-50
2022/05/09 09:35:35;;;;;;;;;;;;;;;;;;5053763;28;19940;-48
2022/05/09 09:38:02;;;;;;;;;;;;;;;;;;5052543;28;19913;-47
2022/05/09 09:40:29;;;;;;;;;;;;;;;;;;5053583;28;20364;-48
2022/05/09 09:42:55;;;;;;;;;;;;;;;;;;5053904;28;19917;-49
2022/05/09 09:45:22;;;;;;;;;;;;;;;;;;5053822;28;20275;-48
2022/05/09 09:47:48;;;;;;;;;;;;;;;;;;5051505;28;19920;-49
2022/05/09 09:50:15;;;;;;;;;;;;;;;;;;5053384;28;19932;-47
2022/05/09 09:52:41;;;;;;;;;;;;;;;;;;5053453;28;19909;-51
2022/05/09 09:55:08;;;;;;;;;;;;;;;;;;5053457;28;19909;-46
2022/05/09 09:57:38;;;;;;;;;;;;;;;;;;5053185;28;19917;-54
2022/05/09 10:00:04;;;;;;;;;;;;;;;;;;5053125;28;19988;-49
2022/05/09 10:02:31;;;;;;;;;;;;;;;;;;5051374;28;19908;-51
2022/05/09 10:04:58;;;;;;;;;;;;;;;;;;5052945;28;19959;-49
2022/05/09 10:07:24;;;;;;;;;;;;;;;;;;5053168;28;19921;-47
2022/05/09 10:09:51;;;;;;;;;;;;;;;;;;5047416;28;20366;-49
2022/05/09 10:12:18;;;;;;;;;;;;;;;;;;5046278;28;19912;-45
2022/05/09 10:14:44;;;;;;;;;;;;;;;;;;5051162;28;19909;-52
2022/05/09 10:17:20;;;;;;;;;;;;;;;;;;5051465;28;19913;-46
2022/05/09 10:19:46;;;;;;;;;;;;;;;;;;5051828;28;20047;-47
2022/05/09 10:24:57;;;;;;;;;;;;;;;;;;5048647;28;19944;-50
2022/05/09 10:27:25;;;;;;;;;;;;;;;;;;5051854;28;19908;-43
2022/05/09 10:29:54;;;;;;;;;;;;;;;;;;5051707;28;19987;-50
2022/05/09 10:32:20;;;;;;;;;;;;;;;;;;5050825;28;19913;-43
2022/05/09 10:34:47;;;;;;;;;;;;;;;;;;5050091;28;20283;-45
2022/05/09 10:37:14;;;;;;;;;;;;;;;;;;5050999;28;20247;-44
2022/05/09 10:39:41;;;;;;;;;;;;;;;;;;5051044;28;19909;-46
2022/05/09 10:42:09;;;;;;;;;;;;;;;;;;5051226;28;19916;-52
2022/05/09 10:44:36;;;;;;;;;;;;;;;;;;5049197;28;19990;-48
2022/05/09 10:47:03;;;;;;;;;;;;;;;;;;5050836;28;19966;-46
2022/05/09 10:49:32;;;;;;;;;;;;;;;;;;5051058;28;19908;-52
2022/05/09 10:51:58;;;;;;;;;;;;;;;;;;5048306;28;19986;-47
2022/05/09 10:54:25;;;;;;;;;;;;;;;;;;5049911;28;19931;-47
2022/05/09 10:56:51;;;;;;;;;;;;;;;;;;5049894;28;20360;-51
2022/05/09 10:59:17;;;;;;;;;;;;;;;;;;5049712;28;20398;-54
2022/05/09 11:01:44;;;;;;;;;;;;;;;;;;5051230;28;19915;-46
2022/05/09 11:04:10;;;;;;;;;;;;;;;;;;5052172;28;19909;-55
2022/05/09 11:06:37;;;;;;;;;;;;;;;;;;5052306;28;19928;-47
2022/05/09 11:09:04;;;;;;;;;;;;;;;;;;5052783;28;19909;-54
2022/05/09 11:11:30;;;;;;;;;;;;;;;;;;5047252;28;19921;-42
2022/05/09 11:13:57;;;;;;;;;;;;;;;;;;5048445;28;19967;-50
2022/05/09 11:16:23;;;;;;;;;;;;;;;;;;5049550;28;19915;-50
2022/05/09 11:18:50;;;;;;;;;;;;;;;;;;5051663;28;19955;-56
2022/05/09 11:21:16;;;;;;;;;;;;;;;;;;5049361;28;20008;-47
2022/05/09 11:23:43;;;;;;;;;;;;;;;;;;5046740;28;20310;-46
2022/05/09 11:26:10;;;;;;;;;;;;;;;;;;5049958;28;19909;-45
2022/05/09 11:28:36;;;;;;;;;;;;;;;;;;5050668;28;19966;-40
2022/05/09 11:31:03;;;;;;;;;;;;;;;;;;5052728;28;20330;-42
2022/05/09 11:33:32;;;;;;;;;;;;;;;;;;5052240;28;19909;-48
2022/05/09 11:35:58;;;;;;;;;;;;;;;;;;5051942;28;19962;-48
2022/05/09 11:38:25;;;;;;;;;;;;;;;;;;5052452;28;20399;-41
2022/05/09 11:40:52;;;;;;;;;;;;;;;;;;5053074;28;20425;-49
2022/05/09 11:43:34;;;;;;;;;;;;;;;;;;5052674;28;19963;-51
2022/05/09 11:46:00;;;;;;;;;;;;;;;;;;5051609;28;20378;-42
2022/05/09 11:48:27;;;;;;;;;;;;;;;;;;5051666;28;19952;-42
2022/05/09 11:50:53;;;;;;;;;;;;;;;;;;5053035;28;19916;-48
2022/05/09 11:53:20;;;;;;;;;;;;;;;;;;5052820;28;19984;-45
2022/05/09 11:55:47;;;;;;;;;;;;;;;;;;5049997;28;19962;-51
2022/05/09 11:58:13;;;;;;;;;;;;;;;;;;5052954;28;19923;-49
2022/05/09 12:00:40;;;;;;;;;;;;;;;;;;5052948;28;20413;-46
2022/05/09 12:03:06;;;;;;;;;;;;;;;;;;5051823;28;19909;-41
2022/05/09 12:05:33;;;;;;;;;;;;;;;;;;5051589;28;19932;-44
2022/05/09 12:07:59;;;;;;;;;;;;;;;;;;5052350;28;20006;-39
2022/05/09 12:10:30;;;;;;;;;;;;;;;;;;5052592;28;19909;-49
2022/05/09 12:12:56;;;;;;;;;;;;;;;;;;5051664;28;19963;-52
2022/05/09 12:15:23;;;;;;;;;;;;;;;;;;5049393;28;20279;-59
2022/05/09 12:17:51;;;;;;;;;;;;;;;;;;5051863;28;20344;-53
2022/05/09 12:20:23;;;;;;;;;;;;;;;;;;5051896;28;20016;-49
2022/05/09 12:22:51;;;;;;;;;;;;;;;;;;5051892;28;20240;-45
2022/05/09 12:25:19;;;;;;;;;;;;;;;;;;5049787;28;19909;-48
2022/05/09 12:27:46;;;;;;;;;;;;;;;;;;5051631;28;19909;-45
2022/05/09 12:30:12;;;;;;;;;;;;;;;;;;5053708;28;19916;-50
2022/05/09 12:32:39;;;;;;;;;;;;;;;;;;5054306;28;19966;-48
2022/05/09 12:35:08;;;;;;;;;;;;;;;;;;5054533;28;19915;-50
2022/05/09 12:37:34;;;;;;;;;;;;;;;;;;5054265;28;19971;-45
2022/05/09 12:40:01;;;;;;;;;;;;;;;;;;5054264;28;20000;-55
2022/05/09 12:42:28;;;;;;;;;;;;;;;;;;5051509;28;19919;-46
2022/05/09 12:44:56;;;;;;;;;;;;;;;;;;5051697;28;19968;-50
2022/05/09 12:47:23;;;;;;;;;;;;;;;;;;5052178;28;19913;-46
2022/05/09 12:49:49;;;;;;;;;;;;;;;;;;5054166;28;19909;-57
2022/05/09 12:52:16;;;;;;;;;;;;;;;;;;5054245;28;20279;-52
2022/05/09 12:55:52;;;;;;;;;;;;;;;;;;5053968;28;19986;-55
2022/05/09 12:57:28;;;;;;;;;;;;;;;;;;5054086;28;19994;-47
2022/05/09 12:59:55;;;;;;;;;;;;;;;;;;5054148;28;19932;-52
2022/05/09 13:02:21;;;;;;;;;;;;;;;;;;5054176;28;19994;-58
2022/05/09 13:04:48;;;;;;;;;;;;;;;;;;5054330;28;19984;-46
2022/05/09 13:07:14;;;;;;;;;;;;;;;;;;5053856;28;19933;-52
2022/05/09 13:09:40;;;;;;;;;;;;;;;;;;5053785;28;19912;-47
2022/05/09 13:12:08;;;;;;;;;;;;;;;;;;5054397;28;20272;-55
2022/05/09 13:14:36;;;;;;;;;;;;;;;;;;5053511;28;19908;-50
2022/05/09 13:17:03;;;;;;;;;;;;;;;;;;5053730;28;19967;-49
2022/05/09 13:19:30;;;;;;;;;;;;;;;;;;5053969;28;19909;-50
2022/05/09 13:21:57;;;;;;;;;;;;;;;;;;5053567;28;19909;-50
2022/05/09 13:24:23;;;;;;;;;;;;;;;;;;5053917;28;19965;-57
2022/05/09 13:26:50;;;;;;;;;;;;;;;;;;5053778;28;19916;-51
2022/05/09 13:29:16;;;;;;;;;;;;;;;;;;5053508;28;19909;-52
2022/05/09 13:31:43;;;;;;;;;;;;;;;;;;5053300;28;20257;-54
2022/05/09 13:34:09;;;;;;;;;;;;;;;;;;5053690;28;19919;-50
2022/05/09 13:36:36;;;;;;;;;;;;;;;;;;5053632;28;19913;-55
2022/05/09 13:39:02;;;;;;;;;;;;;;;;;;5053470;28;19996;-54
2022/05/09 13:41:29;;;;;;;;;;;;;;;;;;5053528;28;19916;-56
2022/05/09 13:43:56;;;;;;;;;;;;;;;;;;5053301;28;19909;-53
2022/05/09 13:46:22;;;;;;;;;;;;;;;;;;5053308;28;19963;-52
2022/05/09 13:48:48;;;;;;;;;;;;;;;;;;5053340;28;19936;-50
2022/05/09 13:51:15;;;;;;;;;;;;;;;;;;5052729;28;20367;-56
2022/05/09 13:53:41;;;;;;;;;;;;;;;;;;5053014;28;19962;-50
2022/05/09 13:56:08;;;;;;;;;;;;;;;;;;5053217;28;19923;-54
2022/05/09 13:58:34;;;;;;;;;;;;;;;;;;5053216;28;19917;-50
2022/05/09 14:01:01;;;;;;;;;;;;;;;;;;5053139;28;19944;-50
2022/05/09 14:03:27;;;;;;;;;;;;;;;;;;5053093;28;19959;-53
2022/05/09 14:05:54;;;;;;;;;;;;;;;;;;5052571;28;19909;-50
2022/05/09 14:08:20;;;;;;;;;;;;;;;;;;5052985;28;19995;-52
2022/05/09 14:10:47;;;;;;;;;;;;;;;;;;5053304;28;19909;-55
2022/05/09 14:13:13;;;;;;;;;;;;;;;;;;5052849;28;20302;-53
2022/05/09 14:15:40;;;;;;;;;;;;;;;;;;5052919;28;20049;-54
2022/05/09 14:18:07;;;;;;;;;;;;;;;;;;5052691;28;19917;-44
2022/05/09 14:20:33;;;;;;;;;;;;;;;;;;5052562;28;20228;-52
2022/05/09 14:23:00;;;;;;;;;;;;;;;;;;5052947;28;19908;-52
2022/05/09 14:30:56;;;;;;;;;;;;;;;;;;5052690;28;19915;-51
2022/05/09 14:33:22;;;;;;;;;;;;;;;;;;5052643;28;19932;-46
2022/05/09 14:35:49;;;;;;;;;;;;;;;;;;5051251;28;19909;-57
2022/05/09 14:38:16;;;;;;;;;;;;;;;;;;5052574;28;20342;-40
2022/05/09 14:40:42;;;;;;;;;;;;;;;;;;5053134;28;20336;-52
2022/05/09 14:43:10;;;;;;;;;;;;;;;;;;5052556;28;19913;-46
2022/05/09 14:45:36;;;;;;;;;;;;;;;;;;5052442;28;19912;-43
2022/05/09 14:48:03;;;;;;;;;;;;;;;;;;5052681;28;19986;-44
2022/05/09 14:50:30;;;;;;;;;;;;;;;;;;5052664;28;19909;-46
2022/05/09 14:52:57;;;;;;;;;;;;;;;;;;5052946;28;20320;-53
2022/05/09 14:58:08;;;;;;;;;;;;;;;;;;5052493;28;19957;-43
2022/05/09 15:00:35;;;;;;;;;;;;;;;;;;5052503;28;19913;-46
2022/05/09 15:03:02;;;;;;;;;;;;;;;;;;5053538;28;19923;-53
2022/05/09 15:05:29;;;;;;;;;;;;;;;;;;5056573;28;19909;-48
2022/05/09 15:07:56;;;;;;;;;;;;;;;;;;5055948;28;19971;-46
2022/05/09 15:10:22;;;;;;;;;;;;;;;;;;5056266;28;19943;-50
2022/05/09 15:12:49;;;;;;;;;;;;;;;;;;5056143;28;20324;-53
2022/05/09 15:15:15;;;;;;;;;;;;;;;;;;5056303;28;20306;-49
2022/05/09 15:17:42;;;;;;;;;;;;;;;;;;5055841;28;19923;-46
2022/05/09 15:20:09;;;;;;;;;;;;;;;;;;5056451;28;20289;-45
2022/05/09 15:22:35;;;;;;;;;;;;;;;;;;5056168;28;19909;-45
2022/05/09 15:25:01;;;;;;;;;;;;;;;;;;5055996;28;19909;-45
2022/05/09 15:27:31;;;;;;;;;;;;;;;;;;5056146;28;19916;-40
2022/05/09 15:29:57;;;;;;;;;;;;;;;;;;5055664;28;19909;-52
2022/05/09 15:32:24;;;;;;;;;;;;;;;;;;5055647;28;19909;-48
2022/05/09 15:34:50;;;;;;;;;;;;;;;;;;5056011;28;19948;-50
2022/05/09 15:37:17;;;;;;;;;;;;;;;;;;5055647;28;19913;-46
2022/05/09 15:39:44;;;;;;;;;;;;;;;;;;5055775;28;19917;-51
2022/05/09 15:42:11;;;;;;;;;;;;;;;;;;5055583;28;20283;-50
2022/05/09 15:44:38;;;;;;;;;;;;;;;;;;5055487;28;19915;-49
2022/05/09 15:47:05;;;;;;;;;;;;;;;;;;5053319;28;19920;-44
2022/05/09 15:49:31;;;;;;;;;;;;;;;;;;5055198;28;19916;-45
2022/05/09 15:51:58;;;;;;;;;;;;;;;;;;5055389;28;20382;-43
2022/05/09 15:54:24;;;;;;;;;;;;;;;;;;5055675;28;19916;-52
2022/05/09 15:56:51;;;;;;;;;;;;;;;;;;5054930;28;20351;-48
2022/05/09 15:59:17;;;;;;;;;;;;;;;;;;5055389;28;19913;-46
2022/05/09 16:01:44;;;;;;;;;;;;;;;;;;5055230;28;19909;-46
2022/05/09 16:04:11;;;;;;;;;;;;;;;;;;5055541;28;19912;-52
2022/05/09 16:12:06;;;;;;;;;;;;;;;;;;5055158;28;19920;-40
2022/05/09 16:14:33;;;;;;;;;;;;;;;;;;5054423;28;19913;-41
2022/05/09 16:16:59;;;;;;;;;;;;;;;;;;5054733;28;19960;-41
2022/05/09 16:19:26;;;;;;;;;;;;;;;;;;5054736;28;19913;-39
2022/05/09 16:21:52;;;;;;;;;;;;;;;;;;5055052;28;19999;-42
2022/05/09 16:24:22;;;;;;;;;;;;;;;;;;5054886;28;19990;-50
2022/05/09 16:26:51;;;;;;;;;;;;;;;;;;5054803;28;19916;-42
2022/05/09 16:29:18;;;;;;;;;;;;;;;;;;5054608;28;19913;-44
2022/05/09 16:31:44;;;;;;;;;;;;;;;;;;5054229;28;19909;-46
2022/05/09 16:34:10;;;;;;;;;;;;;;;;;;5054570;28;19984;-45
2022/05/09 16:36:37;;;;;;;;;;;;;;;;;;5054572;28;19962;-44
2022/05/09 16:39:03;;;;;;;;;;;;;;;;;;5054751;28;20123;-44
2022/05/09 16:41:30;;;;;;;;;;;;;;;;;;5054734;28;20279;-43
2022/05/09 16:43:57;;;;;;;;;;;;;;;;;;5054351;28;19908;-47
2022/05/09 16:46:23;;;;;;;;;;;;;;;;;;5054161;28;19939;-54
2022/05/09 16:48:54;;;;;;;;;;;;;;;;;;5054393;28;20402;-43
2022/05/09 16:51:20;;;;;;;;;;;;;;;;;;5054223;28;19908;-47
2022/05/09 16:53:46;;;;;;;;;;;;;;;;;;5054081;28;19916;-43
2022/05/09 16:56:13;;;;;;;;;;;;;;;;;;5054393;28;19966;-47
2022/05/09 16:58:40;;;;;;;;;;;;;;;;;;5054087;28;20307;-45
2022/05/09 17:01:06;;;;;;;;;;;;;;;;;;5053874;28;19909;-47
2022/05/09 17:03:33;;;;;;;;;;;;;;;;;;5054304;28;19997;-53
2022/05/09 17:05:59;;;;;;;;;;;;;;;;;;5053608;28;19909;-48
2022/05/09 17:08:25;;;;;;;;;;;;;;;;;;5054113;28;19923;-52